Time;durP1;ratioP1;P1;durP2;ratioP2;P2;SDS_P1;SDS_P2;PMS_P1;PMS_P2;Temp;Humidity;BMP_temperature;BMP_pressure;BME280_temperature;BME280_humidity;BME280_pressure;Samples;Min_cycle;Max_cycle;Signal;HPM_P1;HPM_P2
2021/06/05 00:00:47;;;;;;;76.50;61.83;;;20.20;73.80;;;;;;5007115;28;20557;-86
2021/06/05 00:03:14;;;;;;;75.28;61.92;;;20.20;74.00;;;;;;5023376;28;20045;-86
2021/06/05 00:05:46;;;;;;;71.07;58.92;;;20.20;74.10;;;;;;5007499;28;20041;-86
2021/06/05 00:08:11;;;;;;;73.22;60.20;;;20.20;74.40;;;;;;5008214;28;20057;-86
2021/06/05 00:10:45;;;;;;;71.82;58.72;;;20.20;74.30;;;;;;5040064;28;20053;-84
2021/06/05 00:13:14;;;;;;;68.28;55.83;;;20.20;74.50;;;;;;5023873;28;20071;-86
2021/06/05 00:15:41;;;;;;;62.38;55.15;;;20.10;74.50;;;;;;5023607;28;20055;-86
2021/06/05 00:18:07;;;;;;;67.60;55.92;;;20.10;74.60;;;;;;5022891;28;20049;-88
2021/06/05 00:20:33;;;;;;;65.55;54.78;;;20.10;74.70;;;;;;5023804;28;20466;-87
2021/06/05 00:22:59;;;;;;;65.00;55.63;;;20.10;74.70;;;;;;5007244;28;20053;-86
2021/06/05 00:25:25;;;;;;;66.00;55.28;;;20.10;74.90;;;;;;5022783;28;20544;-85
2021/06/05 00:27:56;;;;;;;68.25;58.40;;;20.10;75.00;;;;;;5023065;28;20112;-85
2021/06/05 00:30:22;;;;;;;70.68;60.80;;;20.10;75.00;;;;;;5040154;28;20045;-84
2021/06/05 00:32:48;;;;;;;73.03;61.78;;;20.10;75.20;;;;;;5006554;28;20125;-84
2021/06/05 00:35:14;;;;;;;73.45;62.58;;;20.00;75.20;;;;;;5022396;28;20073;-84
2021/06/05 00:37:40;;;;;;;71.53;61.50;;;20.00;75.20;;;;;;5022881;28;20200;-86
2021/06/05 00:40:07;;;;;;;74.95;61.15;;;20.00;75.20;;;;;;5007248;28;20041;-87
2021/06/05 00:42:32;;;;;;;75.13;61.30;;;20.00;75.30;;;;;;5022925;28;20535;-85
2021/06/05 00:44:58;;;;;;;73.95;61.42;;;20.00;75.30;;;;;;5006290;28;20219;-85
2021/06/05 00:47:24;;;;;;;76.25;61.70;;;19.90;75.30;;;;;;5040197;28;20482;-84
2021/06/05 00:49:50;;;;;;;70.63;57.22;;;19.90;75.40;;;;;;5040264;28;20113;-86
2021/06/05 00:52:16;;;;;;;71.60;58.88;;;19.80;75.40;;;;;;5022195;28;20052;-85
2021/06/05 00:54:45;;;;;;;68.40;55.85;;;19.90;75.40;;;;;;5006458;28;20052;-87
2021/06/05 00:57:10;;;;;;;68.95;56.42;;;19.80;75.50;;;;;;5024629;28;20140;-83
2021/06/05 00:59:36;;;;;;;69.65;59.25;;;19.80;75.60;;;;;;5023027;28;20062;-84
2021/06/05 01:02:02;;;;;;;66.00;54.30;;;19.80;75.50;;;;;;4989857;28;20052;-86
2021/06/05 01:04:28;;;;;;;67.28;55.75;;;19.80;75.60;;;;;;5022996;28;20041;-85
2021/06/05 01:07:02;;;;;;;70.68;56.65;;;19.70;75.60;;;;;;5041032;28;20427;-86
2021/06/05 01:09:45;;;;;;;65.20;55.55;;;19.70;75.80;;;;;;5022280;28;20050;-86
2021/06/05 01:12:39;;;;;;;70.82;58.88;;;19.70;75.80;;;;;;5006972;28;20080;-85
2021/06/05 01:15:08;;;;;;;64.25;53.17;;;19.70;75.80;;;;;;5025241;28;20058;-85
2021/06/05 01:17:38;;;;;;;65.88;53.95;;;19.70;75.90;;;;;;5021839;28;20061;-87
2021/06/05 01:20:09;;;;;;;67.60;55.95;;;19.70;76.00;;;;;;5006240;28;20053;-85
2021/06/05 01:23:13;;;;;;;66.88;52.58;;;19.70;76.00;;;;;;5006186;28;20175;-86
2021/06/05 01:26:00;;;;;;;62.30;51.35;;;19.60;76.00;;;;;;5022942;28;20106;-85
2021/06/05 01:28:31;;;;;;;64.88;52.60;;;19.60;76.00;;;;;;5022485;28;20034;-86
2021/06/05 01:30:58;;;;;;;66.07;53.17;;;19.60;76.10;;;;;;5022135;28;20394;-87
2021/06/05 01:33:25;;;;;;;65.75;52.05;;;19.60;76.10;;;;;;5021051;28;20041;-85
2021/06/05 01:35:53;;;;;;;62.83;50.40;;;19.50;76.10;;;;;;5021774;28;20121;-86
2021/06/05 01:38:19;;;;;;;69.47;53.95;;;19.50;76.20;;;;;;5021757;28;20165;-86
2021/06/05 01:40:46;;;;;;;64.68;51.88;;;19.50;76.10;;;;;;5004510;28;20069;-85
2021/06/05 01:43:12;;;;;;;67.32;52.53;;;19.40;76.10;;;;;;5005281;28;20104;-86
2021/06/05 01:45:39;;;;;;;62.53;51.15;;;19.40;76.20;;;;;;5005009;28;20053;-85
2021/06/05 01:48:06;;;;;;;64.00;51.17;;;19.40;76.20;;;;;;5005330;28;20053;-85
2021/06/05 01:50:33;;;;;;;67.50;51.15;;;19.40;76.30;;;;;;5005176;28;20049;-86
2021/06/05 01:53:04;;;;;;;65.22;52.50;;;19.40;76.30;;;;;;5005743;28;20041;-85
2021/06/05 01:55:43;;;;;;;64.28;51.30;;;19.30;76.40;;;;;;5005573;28;20120;-86
2021/06/05 01:58:13;;;;;;;63.63;51.45;;;19.30;76.40;;;;;;5005916;28;20124;-85
2021/06/05 02:00:47;;;;;;;63.60;50.30;;;19.30;76.40;;;;;;5006399;28;20045;-86
2021/06/05 02:03:14;;;;;;;66.55;51.45;;;19.30;76.50;;;;;;5006268;28;20128;-86
2021/06/05 02:05:40;;;;;;;64.13;50.90;;;19.30;76.60;;;;;;4989098;28;20710;-87
2021/06/05 02:08:06;;;;;;;65.78;50.92;;;19.20;76.60;;;;;;5004894;28;20038;-85
2021/06/05 02:10:33;;;;;;;67.38;52.00;;;19.20;76.60;;;;;;5020678;28;20045;-85
2021/06/05 02:12:59;;;;;;;65.13;51.75;;;19.20;76.70;;;;;;5021266;28;20126;-84
2021/06/05 02:15:37;;;;;;;66.72;52.08;;;19.20;76.70;;;;;;5019372;28;20088;-82
2021/06/05 02:18:06;;;;;;;65.40;50.55;;;19.20;76.80;;;;;;4972486;28;20116;-84
2021/06/05 02:20:48;;;;;;;65.10;50.88;;;19.20;76.80;;;;;;4989117;28;20100;-84
2021/06/05 02:23:17;;;;;;;64.55;51.50;;;19.20;76.80;;;;;;4973083;28;20059;-83
2021/06/05 02:25:43;;;;;;;62.20;49.92;;;19.10;76.80;;;;;;4988683;28;20115;-83
2021/06/05 02:28:11;;;;;;;69.10;52.67;;;19.10;76.80;;;;;;5004527;28;20050;-85
2021/06/05 02:30:36;;;;;;;65.38;50.33;;;19.10;76.90;;;;;;5020345;28;20532;-84
2021/06/05 02:33:05;;;;;;;69.82;50.55;;;19.10;77.00;;;;;;5022111;28;20076;-84
2021/06/05 02:35:36;;;;;;;65.80;51.53;;;19.00;77.00;;;;;;5021991;28;20374;-84
2021/06/05 02:38:03;;;;;;;63.72;49.92;;;19.00;77.10;;;;;;5005133;28;20053;-85
2021/06/05 02:40:31;;;;;;;64.97;49.92;;;19.00;77.20;;;;;;5021005;28;20463;-86
2021/06/05 02:42:58;;;;;;;63.08;49.55;;;19.00;77.20;;;;;;5006003;28;20045;-85
2021/06/05 02:45:35;;;;;;;61.50;48.90;;;19.00;77.30;;;;;;5007463;28;20132;-83
2021/06/05 02:48:01;;;;;;;64.72;51.40;;;18.90;77.60;;;;;;5010890;28;20092;-86
2021/06/05 02:50:37;;;;;;;61.35;48.75;;;18.90;77.60;;;;;;4993415;28;20041;-86
2021/06/05 02:53:04;;;;;;;62.47;50.40;;;18.90;77.90;;;;;;5026723;28;20053;-84
2021/06/05 02:55:31;;;;;;;64.88;52.08;;;18.90;78.10;;;;;;5026358;28;20041;-84
2021/06/05 02:57:56;;;;;;;60.20;49.22;;;18.80;78.10;;;;;;5009886;28;20068;-84
2021/06/05 03:00:29;;;;;;;62.20;48.30;;;18.80;78.30;;;;;;4993518;28;20045;-84
2021/06/05 03:02:55;;;;;;;59.17;47.67;;;18.80;78.40;;;;;;5010251;28;20095;-83
2021/06/05 03:05:20;;;;;;;61.00;46.05;;;18.80;78.50;;;;;;5025859;28;20502;-85
2021/06/05 03:07:46;;;;;;;60.40;47.63;;;18.80;78.50;;;;;;5043225;28;20080;-84
2021/06/05 03:10:12;;;;;;;63.97;47.00;;;18.70;78.60;;;;;;5009077;28;20491;-84
2021/06/05 03:12:38;;;;;;;57.90;44.42;;;18.70;78.70;;;;;;5025208;28;20068;-89
2021/06/05 03:15:06;;;;;;;59.90;43.05;;;18.70;78.80;;;;;;5026344;28;20046;-85
2021/06/05 03:17:35;;;;;;;59.92;44.30;;;18.70;79.00;;;;;;4994081;28;20040;-87
2021/06/05 03:20:07;;;;;;;50.85;40.58;;;18.60;79.30;;;;;;5027350;28;20054;-86
2021/06/05 03:22:33;;;;;;;58.55;42.03;;;18.60;79.40;;;;;;5025262;28;20049;-86
2021/06/05 03:24:59;;;;;;;50.80;38.30;;;18.60;79.60;;;;;;5023468;28;20458;-88
2021/06/05 03:27:24;;;;;;;50.47;38.60;;;18.60;79.70;;;;;;5042144;28;20045;-88
2021/06/05 03:29:50;;;;;;;46.30;36.83;;;18.50;79.70;;;;;;5024621;28;20166;-87
2021/06/05 03:32:16;;;;;;;45.92;35.88;;;18.50;79.70;;;;;;5006376;28;20060;-86
2021/06/05 03:34:42;;;;;;;45.45;35.90;;;18.50;79.80;;;;;;5021939;28;20052;-86
2021/06/05 03:37:08;;;;;;;44.83;36.45;;;18.50;79.90;;;;;;5005809;28;20375;-87
2021/06/05 03:39:34;;;;;;;43.85;35.65;;;18.50;80.00;;;;;;4989611;28;20053;-88
2021/06/05 03:41:59;;;;;;;42.20;32.17;;;18.40;80.20;;;;;;5007040;28;20049;-88
2021/06/05 03:44:25;;;;;;;40.15;32.25;;;18.40;80.20;;;;;;5006886;28;20060;-87
2021/06/05 03:46:51;;;;;;;36.25;29.55;;;18.40;80.30;;;;;;5005512;28;20088;-87
2021/06/05 03:49:17;;;;;;;40.05;31.23;;;18.40;80.40;;;;;;5024208;28;20466;-88
2021/06/05 03:51:43;;;;;;;41.63;31.20;;;18.40;80.60;;;;;;5040918;28;20049;-87
2021/06/05 03:54:09;;;;;;;35.63;27.88;;;18.40;80.80;;;;;;5024273;28;20548;-86
2021/06/05 03:56:35;;;;;;;39.13;29.15;;;18.30;80.90;;;;;;5020474;28;20091;-85
2021/06/05 03:59:01;;;;;;;31.58;25.10;;;18.30;81.20;;;;;;5007041;28;20045;-88
2021/06/05 04:01:27;;;;;;;26.02;21.80;;;18.20;81.20;;;;;;5005793;28;20057;-91
2021/06/05 04:03:54;;;;;;;24.88;18.80;;;18.20;81.50;;;;;;5006771;28;20046;-88
2021/06/05 04:06:20;;;;;;;21.50;18.48;;;18.20;81.60;;;;;;5010589;28;20048;-91
2021/06/05 04:08:46;;;;;;;17.88;14.95;;;18.20;81.60;;;;;;4992477;28;20393;-89
2021/06/05 04:11:13;;;;;;;15.60;14.00;;;18.20;81.60;;;;;;5009170;28;20041;-93
2021/06/05 04:13:39;;;;;;;14.20;12.55;;;18.10;81.70;;;;;;5010010;28;20128;-92
2021/06/05 04:16:05;;;;;;;14.27;11.40;;;18.10;81.80;;;;;;4990509;28;20050;-91
2021/06/05 04:18:33;;;;;;;12.10;10.40;;;18.10;81.80;;;;;;5007034;28;20124;-90
2021/06/05 04:20:59;;;;;;;11.73;10.25;;;18.10;81.90;;;;;;5023719;28;20101;-90
2021/06/05 04:23:25;;;;;;;11.32;9.93;;;18.10;82.00;;;;;;4990716;28;20045;-86
2021/06/05 04:25:51;;;;;;;12.50;10.35;;;18.10;82.00;;;;;;5021381;28;20053;-87
2021/06/05 04:28:18;;;;;;;11.23;9.75;;;18.10;82.10;;;;;;5004533;28;20054;-88
2021/06/05 04:30:44;;;;;;;10.40;9.32;;;18.00;82.10;;;;;;5020655;28;20046;-89
2021/06/05 04:33:12;;;;;;;11.85;9.48;;;18.00;82.10;;;;;;5005239;28;20120;-90
2021/06/05 04:35:56;;;;;;;11.60;9.77;;;18.00;82.20;;;;;;5028229;28;20107;-89
2021/06/05 04:38:21;;;;;;;10.52;9.43;;;18.00;82.30;;;;;;5004430;28;20049;-89
2021/06/05 04:40:47;;;;;;;11.25;9.95;;;18.00;82.30;;;;;;5021046;28;20045;-90
2021/06/05 04:43:14;;;;;;;11.80;10.02;;;17.90;82.30;;;;;;4987330;28;20061;-90
2021/06/05 04:45:42;;;;;;;10.60;8.93;;;17.90;82.30;;;;;;5003693;28;20096;-90
2021/06/05 04:48:08;;;;;;;10.02;8.73;;;17.90;82.30;;;;;;5020092;28;20471;-90
2021/06/05 04:50:35;;;;;;;10.85;8.95;;;17.90;82.40;;;;;;5020619;28;20038;-90
2021/06/05 04:53:01;;;;;;;9.18;8.23;;;17.80;82.30;;;;;;5018106;28;20049;-88
2021/06/05 04:55:31;;;;;;;9.27;8.30;;;17.80;82.40;;;;;;5017426;28;20050;-89
2021/06/05 04:57:59;;;;;;;9.35;7.20;;;17.80;82.50;;;;;;5002049;28;20065;-87
2021/06/05 05:00:31;;;;;;;7.68;6.88;;;17.80;82.60;;;;;;5002646;28;20073;-88
2021/06/05 05:02:57;;;;;;;8.38;7.22;;;17.70;82.50;;;;;;5001943;28;20056;-91
2021/06/05 05:05:23;;;;;;;8.65;7.78;;;17.70;82.40;;;;;;5018317;28;20041;-88
2021/06/05 05:07:49;;;;;;;8.77;7.75;;;17.70;82.50;;;;;;5001642;28;20045;-87
2021/06/05 05:10:16;;;;;;;8.68;7.82;;;17.60;82.40;;;;;;5018246;28;20060;-88
2021/06/05 05:12:45;;;;;;;9.20;8.30;;;17.60;82.40;;;;;;5019171;28;20522;-86
2021/06/05 05:15:11;;;;;;;9.20;8.30;;;17.60;82.40;;;;;;5003058;28;20050;-88
2021/06/05 05:17:37;;;;;;;9.40;8.40;;;17.60;82.30;;;;;;5001439;28;20145;-86
2021/06/05 05:20:07;;;;;;;9.57;8.68;;;17.50;82.30;;;;;;5016562;28;20070;-86
2021/06/05 05:22:34;;;;;;;10.85;9.32;;;17.50;82.40;;;;;;5015240;28;20054;-86
2021/06/05 05:24:59;;;;;;;10.27;9.20;;;17.50;82.40;;;;;;5015493;28;20238;-87
2021/06/05 05:27:25;;;;;;;9.35;8.45;;;17.50;82.40;;;;;;5016735;28;20074;-86
2021/06/05 05:29:53;;;;;;;9.27;8.25;;;17.50;82.50;;;;;;4999821;28;20045;-87
2021/06/05 05:32:19;;;;;;;8.82;7.93;;;17.50;82.60;;;;;;5017046;28;20497;-87
2021/06/05 05:34:45;;;;;;;9.70;8.80;;;17.40;82.50;;;;;;5000665;28;20077;-88
2021/06/05 05:37:11;;;;;;;8.50;7.70;;;17.40;82.50;;;;;;5017795;28;20402;-87
2021/06/05 05:39:37;;;;;;;9.00;8.10;;;17.40;82.60;;;;;;5017497;28;20497;-87
2021/06/05 05:42:03;;;;;;;9.05;8.15;;;17.40;82.70;;;;;;5000275;28;20121;-87
2021/06/05 05:44:29;;;;;;;9.18;8.27;;;17.40;82.80;;;;;;4999570;28;20046;-88
2021/06/05 05:46:55;;;;;;;8.77;7.88;;;17.40;82.80;;;;;;5015265;28;20123;-85
2021/06/05 05:49:21;;;;;;;9.10;8.20;;;17.40;82.80;;;;;;5015835;28;20478;-85
2021/06/05 05:51:47;;;;;;;8.93;8.02;;;17.40;82.90;;;;;;5014061;28;20129;-86
2021/06/05 05:54:12;;;;;;;9.18;8.25;;;17.30;82.80;;;;;;5013982;28;20453;-87
2021/06/05 05:56:39;;;;;;;9.73;8.73;;;17.40;83.00;;;;;;5013998;28;20176;-88
2021/06/05 05:59:05;;;;;;;8.82;7.90;;;17.30;82.90;;;;;;5011819;28;20102;-87
2021/06/05 06:01:30;;;;;;;9.30;8.30;;;17.30;83.00;;;;;;5011463;28;20415;-86
2021/06/05 06:03:57;;;;;;;10.30;8.07;;;17.40;83.00;;;;;;4995029;28;20052;-87
2021/06/05 06:06:25;;;;;;;8.13;7.32;;;17.40;83.10;;;;;;5012884;28;20069;-87
2021/06/05 06:08:51;;;;;;;8.02;7.20;;;17.40;83.00;;;;;;5019719;28;20068;-87
2021/06/05 06:11:16;;;;;;;8.10;7.30;;;17.40;83.10;;;;;;4995047;28;20046;-87
2021/06/05 06:13:42;;;;;;;8.20;7.40;;;17.40;83.20;;;;;;5012418;28;20040;-87
2021/06/05 06:16:09;;;;;;;8.70;7.80;;;17.40;83.20;;;;;;4994795;28;20050;-88
2021/06/05 06:18:36;;;;;;;8.38;7.43;;;17.40;83.30;;;;;;5012031;28;20073;-87
2021/06/05 06:21:03;;;;;;;7.07;6.38;;;17.40;83.40;;;;;;5012476;28;20053;-86
2021/06/05 06:23:32;;;;;;;7.50;6.72;;;17.40;83.40;;;;;;5011604;28;20402;-86
2021/06/05 06:26:00;;;;;;;7.30;6.60;;;17.40;83.30;;;;;;5011142;28;20046;-86
2021/06/05 06:28:30;;;;;;;11.38;6.47;;;17.40;83.20;;;;;;5011907;28;20495;-85
2021/06/05 06:30:56;;;;;;;6.85;5.93;;;17.40;83.30;;;;;;5011585;28;20049;-86
2021/06/05 06:33:22;;;;;;;6.18;5.57;;;17.40;83.30;;;;;;5011126;28;20449;-86
2021/06/05 06:35:48;;;;;;;7.22;6.50;;;17.40;83.20;;;;;;5011209;28;20046;-86
2021/06/05 06:38:19;;;;;;;5.80;5.13;;;17.40;83.00;;;;;;5010936;28;20049;-87
2021/06/05 06:40:45;;;;;;;6.83;5.40;;;17.50;82.90;;;;;;5012342;28;20085;-86
2021/06/05 06:43:12;;;;;;;5.93;4.93;;;17.50;82.70;;;;;;5011173;28;20362;-85
2021/06/05 06:45:39;;;;;;;6.15;4.68;;;17.50;82.60;;;;;;5016310;28;20041;-87
2021/06/05 06:48:05;;;;;;;6.28;4.10;;;17.50;82.30;;;;;;5012400;28;20152;-88
2021/06/05 06:50:30;;;;;;;6.32;5.00;;;17.50;82.30;;;;;;4995465;28;20076;-87
2021/06/05 06:52:56;;;;;;;4.30;3.63;;;17.50;82.00;;;;;;5011432;28;20061;-87
2021/06/05 06:55:22;;;;;;;5.43;4.57;;;17.60;81.90;;;;;;4994288;28;20053;-87
2021/06/05 06:57:49;;;;;;;6.03;4.90;;;17.60;81.80;;;;;;4994997;28;20046;-86
2021/06/05 07:00:21;;;;;;;4.15;3.75;;;17.60;81.80;;;;;;5010650;28;20050;-85
2021/06/05 07:02:47;;;;;;;5.32;4.82;;;17.60;81.70;;;;;;4996000;28;20068;-86
2021/06/05 07:05:12;;;;;;;5.63;4.13;;;17.60;81.50;;;;;;4994492;28;20129;-86
2021/06/05 07:07:38;;;;;;;4.90;4.22;;;17.70;81.60;;;;;;4995002;28;20065;-87
2021/06/05 07:10:06;;;;;;;4.63;3.97;;;17.70;81.60;;;;;;5011299;28;20193;-88
2021/06/05 07:12:31;;;;;;;4.93;4.05;;;17.70;81.70;;;;;;5012813;28;20108;-86
2021/06/05 07:14:57;;;;;;;4.70;4.20;;;17.70;81.80;;;;;;5011580;28;20045;-86
2021/06/05 07:17:23;;;;;;;4.32;3.92;;;17.70;81.90;;;;;;5010276;28;20096;-86
2021/06/05 07:19:51;;;;;;;4.93;4.30;;;17.80;81.90;;;;;;5010891;28;20045;-86
2021/06/05 07:22:16;;;;;;;5.80;4.15;;;17.80;82.00;;;;;;5011648;28;20046;-87
2021/06/05 07:24:44;;;;;;;4.60;4.20;;;17.80;82.10;;;;;;5011022;28;20045;-86
2021/06/05 07:27:10;;;;;;;5.32;4.22;;;17.90;82.00;;;;;;5012002;28;20050;-87
2021/06/05 07:29:36;;;;;;;4.65;4.15;;;17.90;82.00;;;;;;4995011;28;20046;-87
2021/06/05 07:32:04;;;;;;;5.10;4.55;;;17.90;81.70;;;;;;5011949;28;20049;-87
2021/06/05 07:34:30;;;;;;;4.95;4.45;;;18.00;81.70;;;;;;5015084;28;20113;-87
2021/06/05 07:37:02;;;;;;;6.50;5.03;;;18.00;82.00;;;;;;5015458;28;20462;-88
2021/06/05 07:39:31;;;;;;;5.60;5.00;;;18.00;81.80;;;;;;5014254;28;20064;-85
2021/06/05 07:41:59;;;;;;;5.78;5.13;;;18.10;81.80;;;;;;4998914;28;20053;-87
2021/06/05 07:44:25;;;;;;;6.10;5.50;;;18.20;82.00;;;;;;4998905;28;20100;-87
2021/06/05 07:46:54;;;;;;;5.78;5.22;;;18.20;82.00;;;;;;4998909;28;20073;-86
2021/06/05 07:49:21;;;;;;;5.75;5.15;;;18.30;82.00;;;;;;4998415;28;20042;-87
2021/06/05 07:51:47;;;;;;;4.93;4.43;;;18.40;82.10;;;;;;5015121;28;20061;-84
2021/06/05 07:54:13;;;;;;;5.85;5.25;;;18.50;82.00;;;;;;5018770;28;20049;-84
2021/06/05 07:56:39;;;;;;;6.05;5.45;;;18.60;81.90;;;;;;5013624;28;20095;-87
2021/06/05 07:59:05;;;;;;;6.28;5.28;;;18.60;81.90;;;;;;5013558;28;20064;-84
2021/06/05 08:01:31;;;;;;;6.63;5.28;;;18.70;82.00;;;;;;5013096;28;20042;-84
2021/06/05 08:03:56;;;;;;;6.00;5.35;;;18.80;82.00;;;;;;5014032;28;20048;-84
2021/06/05 08:06:22;;;;;;;6.60;5.60;;;18.90;81.90;;;;;;5012899;28;20133;-85
2021/06/05 08:08:48;;;;;;;6.22;5.63;;;18.90;81.70;;;;;;5029510;28;20038;-86
2021/06/05 08:11:15;;;;;;;6.30;5.70;;;19.00;81.50;;;;;;4996355;28;20092;-84
2021/06/05 08:13:41;;;;;;;6.63;6.03;;;19.00;81.30;;;;;;5012622;28;20454;-84
2021/06/05 08:16:06;;;;;;;6.03;5.43;;;19.10;81.30;;;;;;5014066;28;20046;-84
2021/06/05 08:18:32;;;;;;;5.78;5.25;;;19.10;81.10;;;;;;4996120;28;20119;-84
2021/06/05 08:21:00;;;;;;;5.80;4.57;;;19.20;81.00;;;;;;5013923;28;20368;-84
2021/06/05 08:23:28;;;;;;;5.32;4.82;;;19.30;81.00;;;;;;5027807;28;20045;-84
2021/06/05 08:25:54;;;;;;;6.28;5.68;;;19.40;80.80;;;;;;5023581;28;20046;-88
2021/06/05 08:28:22;;;;;;;6.97;6.00;;;19.50;81.00;;;;;;5016158;28;20049;-87
2021/06/05 08:30:49;;;;;;;6.60;6.00;;;19.50;81.00;;;;;;5014283;28;20042;-87
2021/06/05 08:33:15;;;;;;;5.60;5.10;;;19.60;80.90;;;;;;5014970;28;20116;-85
2021/06/05 08:35:41;;;;;;;6.30;5.70;;;19.70;80.70;;;;;;5016284;28;20064;-87
2021/06/05 08:38:08;;;;;;;5.22;4.80;;;19.80;80.60;;;;;;5015046;28;20079;-87
2021/06/05 08:40:46;;;;;;;5.53;5.03;;;19.90;80.40;;;;;;4997648;28;20058;-88
2021/06/05 08:43:20;;;;;;;5.40;4.78;;;20.00;80.20;;;;;;5017684;28;20097;-87
2021/06/05 08:45:46;;;;;;;4.90;4.50;;;20.10;80.00;;;;;;5014443;28;20141;-87
2021/06/05 08:48:17;;;;;;;6.03;5.43;;;20.20;79.70;;;;;;4998178;28;20136;-88
2021/06/05 08:50:43;;;;;;;5.38;4.88;;;20.30;79.50;;;;;;5013872;28;20065;-85
2021/06/05 08:53:22;;;;;;;5.22;4.72;;;20.40;79.40;;;;;;5014371;28;20498;-87
2021/06/05 08:55:55;;;;;;;6.25;5.65;;;20.50;79.20;;;;;;4984151;28;20053;-88
2021/06/05 08:58:34;;;;;;;6.28;5.68;;;20.50;79.00;;;;;;5013765;28;20042;-87
2021/06/05 09:01:03;;;;;;;6.13;5.60;;;20.60;78.80;;;;;;4980550;28;20061;-86
2021/06/05 09:03:30;;;;;;;7.10;6.40;;;20.70;78.70;;;;;;5012087;28;20076;-88
2021/06/05 09:06:01;;;;;;;6.18;5.57;;;20.70;78.50;;;;;;5012489;28;20065;-86
2021/06/05 09:08:28;;;;;;;7.10;6.47;;;20.80;78.50;;;;;;5012651;28;20046;-89
2021/06/05 09:10:58;;;;;;;5.72;5.20;;;20.90;78.40;;;;;;5013366;28;20046;-87
2021/06/05 09:13:24;;;;;;;6.50;5.90;;;20.90;78.10;;;;;;4995855;28;20049;-87
2021/06/05 09:15:50;;;;;;;6.40;5.78;;;21.00;77.90;;;;;;4995937;28;20424;-86
2021/06/05 09:18:16;;;;;;;6.13;5.57;;;21.00;77.70;;;;;;5008672;28;20491;-87
2021/06/05 09:20:44;;;;;;;5.80;5.20;;;21.00;77.60;;;;;;4991823;28;20054;-87
2021/06/05 09:23:28;;;;;;;7.38;6.57;;;21.00;77.60;;;;;;4960130;28;20141;-85
2021/06/05 09:25:54;;;;;;;6.18;5.68;;;21.00;77.40;;;;;;4993694;28;20105;-86
2021/06/05 09:28:28;;;;;;;6.55;5.95;;;21.00;77.40;;;;;;4992352;28;20095;-87
2021/06/05 09:31:14;;;;;;;6.35;5.85;;;21.10;77.20;;;;;;4992130;28;20511;-86
2021/06/05 09:33:40;;;;;;;7.38;6.70;;;21.10;76.90;;;;;;4992294;28;20038;-85
2021/06/05 09:36:22;;;;;;;6.88;6.28;;;21.10;76.90;;;;;;4976014;28;20154;-86
2021/06/05 09:39:04;;;;;;;6.82;6.30;;;21.10;76.70;;;;;;4960611;28;20113;-84
2021/06/05 09:41:38;;;;;;;5.90;5.40;;;21.20;76.60;;;;;;4977803;28;20066;-85
2021/06/05 09:44:22;;;;;;;5.80;5.30;;;21.20;76.40;;;;;;4992632;28;20073;-86
2021/06/05 09:47:04;;;;;;;6.65;5.95;;;21.20;76.40;;;;;;4993606;28;20504;-88
2021/06/05 09:49:45;;;;;;;;;;;21.20;76.40;;;;;;4960639;28;20058;-87
2021/06/05 09:52:35;;;;;;;6.20;5.60;;;21.20;76.40;;;;;;4992757;28;20366;-87
2021/06/05 09:55:21;;;;;;;6.22;5.70;;;21.20;76.50;;;;;;4994113;28;20137;-87
2021/06/05 09:57:49;;;;;;;6.25;5.45;;;21.30;76.20;;;;;;4989648;28;20108;-87
2021/06/05 10:00:25;;;;;;;6.25;5.65;;;21.30;76.10;;;;;;4976429;28;20495;-86
2021/06/05 10:02:53;;;;;;;7.60;6.90;;;21.30;76.00;;;;;;4992035;28;20042;-86
2021/06/05 10:05:28;;;;;;;7.57;6.88;;;21.30;76.00;;;;;;4991831;28;20046;-86
2021/06/05 10:07:59;;;;;;;8.40;7.70;;;21.20;76.00;;;;;;4960262;28;20479;-85
2021/06/05 10:10:39;;;;;;;8.23;7.53;;;21.20;76.30;;;;;;4976140;28;20046;-87
2021/06/05 10:13:14;;;;;;;9.40;8.60;;;21.20;76.40;;;;;;4960133;28;20348;-85
2021/06/05 10:15:55;;;;;;;9.77;8.88;;;21.10;76.50;;;;;;4943455;28;20081;-85
2021/06/05 10:18:28;;;;;;;8.82;8.07;;;21.10;76.80;;;;;;4991925;28;20066;-86
2021/06/05 10:21:11;;;;;;;8.70;7.90;;;21.10;76.90;;;;;;5011736;28;20053;-87
2021/06/05 10:23:44;;;;;;;9.45;8.65;;;21.00;76.90;;;;;;5011561;28;20042;-87
2021/06/05 10:26:26;;;;;;;9.38;8.57;;;21.00;77.00;;;;;;5012580;28;20034;-86
2021/06/05 10:28:55;;;;;;;10.18;9.27;;;20.90;76.90;;;;;;5011313;28;20099;-87
2021/06/05 10:31:22;;;;;;;9.10;8.38;;;20.90;77.00;;;;;;4995572;28;20129;-87
2021/06/05 10:33:54;;;;;;;9.95;9.15;;;20.90;77.10;;;;;;5010707;28;20088;-86
2021/06/05 10:36:41;;;;;;;10.23;9.43;;;20.90;77.10;;;;;;4995077;28;20137;-86
2021/06/05 10:39:15;;;;;;;11.18;10.32;;;20.90;77.20;;;;;;5014706;28;20117;-87
2021/06/05 10:42:05;;;;;;;12.80;11.70;;;20.90;77.30;;;;;;5010993;28;20049;-86
2021/06/05 10:44:34;;;;;;;12.05;10.98;;;20.80;77.30;;;;;;5010399;28;20132;-88
2021/06/05 10:47:12;;;;;;;11.43;10.52;;;20.80;77.30;;;;;;5011343;28;20046;-87
2021/06/05 10:49:59;;;;;;;11.65;10.80;;;20.80;77.50;;;;;;5012005;28;20089;-86
2021/06/05 10:52:35;;;;;;;12.90;11.82;;;20.70;77.40;;;;;;5010876;28;20066;-86
2021/06/05 10:55:08;;;;;;;11.60;10.52;;;20.70;77.50;;;;;;4995333;28;20068;-87
2021/06/05 10:57:35;;;;;;;;;;;20.70;77.80;;;;;;5012203;28;20042;-87
2021/06/05 11:00:23;;;;;;;12.60;11.50;;;20.70;77.70;;;;;;5011094;28;19925;-86
2021/06/05 11:02:56;;;;;;;14.38;13.27;;;20.70;77.80;;;;;;5012878;28;20045;-86
2021/06/05 11:05:30;;;;;;;14.73;13.43;;;20.60;77.90;;;;;;4995056;28;20403;-86
2021/06/05 11:08:08;;;;;;;14.50;13.32;;;20.50;77.90;;;;;;5029080;28;20188;-87
2021/06/05 11:11:16;;;;;;;14.35;13.23;;;20.50;78.10;;;;;;5016276;28;20050;-85
2021/06/05 11:13:42;;;;;;;15.32;14.05;;;20.50;78.10;;;;;;5015761;28;20042;-88
2021/06/05 11:16:13;;;;;;;17.20;15.80;;;20.40;78.20;;;;;;5016406;28;20041;-86
2021/06/05 11:18:41;;;;;;;18.70;17.13;;;20.40;78.30;;;;;;4994828;28;20190;-86
2021/06/05 11:21:22;;;;;;;19.38;17.63;;;20.30;78.30;;;;;;4996751;28;20046;-87
2021/06/05 11:23:57;;;;;;;18.95;17.40;;;20.30;78.40;;;;;;4994763;28;20056;-87
2021/06/05 11:26:38;;;;;;;19.40;17.75;;;20.30;78.50;;;;;;4996667;28;20198;-87
2021/06/05 11:29:27;;;;;;;20.17;18.50;;;20.20;78.60;;;;;;4995786;28;20049;-87
2021/06/05 11:31:58;;;;;;;21.25;19.40;;;20.20;78.60;;;;;;4994958;28;20054;-87
2021/06/05 11:34:36;;;;;;;20.50;18.70;;;20.20;78.70;;;;;;4994710;28;20046;-85
2021/06/05 11:37:05;;;;;;;21.30;19.45;;;20.20;78.60;;;;;;4994301;28;20053;-88
2021/06/05 11:39:30;;;;;;;21.02;19.10;;;20.20;78.60;;;;;;4995598;28;20049;-86
2021/06/05 11:41:57;;;;;;;20.63;18.83;;;20.20;78.60;;;;;;4995679;28;20425;-87
2021/06/05 11:44:39;;;;;;;22.00;20.17;;;20.20;78.70;;;;;;4994935;28;20165;-89
2021/06/05 11:47:21;;;;;;;21.77;19.92;;;20.20;78.60;;;;;;4978858;28;20470;-87
2021/06/05 11:50:11;;;;;;;23.87;21.80;;;20.20;78.70;;;;;;4993804;28;20497;-88
2021/06/05 11:52:54;;;;;;;22.90;20.90;;;20.20;78.80;;;;;;4995620;28;20297;-84
2021/06/05 11:55:41;;;;;;;23.88;21.75;;;20.20;78.70;;;;;;4994206;28;20050;-85
2021/06/05 11:58:19;;;;;;;27.70;25.27;;;20.30;78.70;;;;;;4993883;28;20046;-86
2021/06/05 12:01:04;;;;;;;27.85;25.20;;;20.30;78.70;;;;;;4995001;28;20145;-85
2021/06/05 12:03:48;;;;;;;25.85;23.55;;;20.30;78.50;;;;;;4994314;28;20038;-86
2021/06/05 12:06:28;;;;;;;27.98;25.50;;;20.30;78.60;;;;;;4980215;28;20509;-87
2021/06/05 12:09:02;;;;;;;26.98;24.58;;;20.30;78.60;;;;;;4993917;28;20057;-85
2021/06/05 12:11:36;;;;;;;27.65;25.05;;;20.30;78.30;;;;;;4977792;28;20055;-85
2021/06/05 12:14:03;;;;;;;26.75;24.25;;;20.30;78.20;;;;;;4977283;28;20399;-86
2021/06/05 12:16:31;;;;;;;26.60;23.98;;;20.40;78.10;;;;;;4994244;28;20042;-84
2021/06/05 12:18:57;;;;;;;26.75;24.15;;;20.50;78.00;;;;;;5010768;28;20131;-88
2021/06/05 12:21:27;;;;;;;26.80;24.40;;;20.60;78.00;;;;;;4996860;28;20474;-87
2021/06/05 12:23:53;;;;;;;27.67;25.17;;;20.70;77.90;;;;;;5012610;28;20120;-86
2021/06/05 12:26:24;;;;;;;26.58;24.08;;;20.70;77.80;;;;;;5013413;28;20046;-85
2021/06/05 12:29:07;;;;;;;26.83;24.40;;;20.70;77.60;;;;;;4997236;28;20046;-85
2021/06/05 12:31:36;;;;;;;25.90;23.55;;;20.60;77.60;;;;;;4999499;28;20056;-85
2021/06/05 12:34:29;;;;;;;26.75;24.35;;;20.50;77.70;;;;;;5013939;28;20081;-85
2021/06/05 12:37:05;;;;;;;27.52;24.92;;;20.50;77.50;;;;;;5017480;28;20061;-85
2021/06/05 12:39:30;;;;;;;29.27;26.67;;;20.50;77.90;;;;;;5004328;28;20506;-85
2021/06/05 12:41:56;;;;;;;30.50;27.65;;;20.50;77.90;;;;;;5018509;28;20052;-87
2021/06/05 12:44:30;;;;;;;30.95;28.02;;;20.40;78.00;;;;;;5002519;28;20060;-84
2021/06/05 12:46:57;;;;;;;29.83;26.50;;;20.30;78.10;;;;;;5002862;28;20041;-85
2021/06/05 12:49:26;;;;;;;29.02;26.02;;;20.30;78.30;;;;;;5003696;28;20053;-84